Time;durP1;ratioP1;P1;durP2;ratioP2;P2;SDS_P1;SDS_P2;PMS_P1;PMS_P2;Temp;Humidity;BMP_temperature;BMP_pressure;BME280_temperature;BME280_humidity;BME280_pressure;Samples;Min_cycle;Max_cycle;Signal;HPM_P1;HPM_P2
2022/03/29 00:01:29;;;;;;;17.40;10.63;;;;;;;5.41;100.00;100609.00;5005455;28;20041;-76
2022/03/29 00:03:57;;;;;;;18.17;10.07;;;;;;;5.47;100.00;100610.75;4992222;28;21057;-78
2022/03/29 00:06:24;;;;;;;17.17;10.07;;;;;;;5.45;100.00;100605.47;5010807;28;20046;-78
2022/03/29 00:08:58;;;;;;;17.50;9.43;;;;;;;5.46;100.00;100601.97;4974932;28;20069;-78
2022/03/29 00:11:25;;;;;;;15.73;10.33;;;;;;;5.54;100.00;100597.59;5001981;28;20526;-78
2022/03/29 00:13:55;;;;;;;17.03;8.77;;;;;;;5.63;100.00;100587.16;4973648;28;20504;-78
2022/03/29 00:16:23;;;;;;;18.97;9.97;;;;;;;5.68;100.00;100591.50;5009919;28;20474;-78
2022/03/29 00:18:52;;;;;;;14.47;9.17;;;;;;;5.59;100.00;100588.00;4994053;28;20038;-77
2022/03/29 00:21:22;;;;;;;17.63;9.60;;;;;;;5.57;100.00;100587.16;4985354;28;20051;-77
2022/03/29 00:23:48;;;;;;;17.83;9.63;;;;;;;5.77;100.00;100592.34;4986549;28;20096;-77
2022/03/29 00:26:16;;;;;;;19.47;9.53;;;;;;;5.75;100.00;100588.84;5004655;28;20097;-78
2022/03/29 00:28:43;;;;;;;16.03;9.27;;;;;;;5.76;100.00;100595.84;4977097;28;20046;-78
2022/03/29 00:31:10;;;;;;;14.70;8.53;;;;;;;5.66;100.00;100591.50;4998670;28;20460;-77
2022/03/29 00:33:37;;;;;;;15.27;9.57;;;;;;;5.68;100.00;100599.34;4975115;28;20046;-77
2022/03/29 00:36:03;;;;;;;15.83;9.10;;;;;;;5.66;100.00;100596.75;4989899;28;20046;-78
2022/03/29 00:38:30;;;;;;;17.30;9.57;;;;;;;5.71;100.00;100601.97;4968496;28;20046;-78
2022/03/29 00:40:58;;;;;;;17.50;9.53;;;;;;;5.80;100.00;100594.97;5009538;28;20058;-78
2022/03/29 00:43:25;;;;;;;16.23;9.33;;;;;;;5.76;100.00;100592.34;4988041;28;20054;-78
2022/03/29 00:45:51;;;;;;;19.30;10.73;;;;;;;5.88;100.00;100585.31;4977322;28;20078;-78
2022/03/29 00:48:18;;;;;;;22.17;11.63;;;;;;;5.89;100.00;100580.97;5000475;23;20573;-81
2022/03/29 00:50:45;;;;;;;21.20;11.57;;;;;;;5.95;100.00;100588.84;5006309;28;20134;-80
2022/03/29 00:53:12;;;;;;;16.83;10.90;;;;;;;5.90;100.00;100585.34;4983218;28;20042;-81
2022/03/29 00:55:39;;;;;;;19.70;11.17;;;;;;;6.03;100.00;100575.69;4992684;28;20046;-80
2022/03/29 00:58:09;;;;;;;21.13;11.77;;;;;;;5.94;100.00;100584.47;4974516;28;20074;-80
2022/03/29 01:00:36;;;;;;;19.87;11.07;;;;;;;5.90;100.00;100569.59;4975741;28;20042;-80
2022/03/29 01:03:03;;;;;;;22.27;10.70;;;;;;;5.96;100.00;100569.59;4973100;28;20038;-80
2022/03/29 01:05:30;;;;;;;23.00;12.10;;;;;;;5.99;100.00;100568.75;4989851;28;20046;-80
2022/03/29 01:07:58;;;;;;;25.80;11.73;;;;;;;5.89;100.00;100560.00;4990334;28;20105;-79
2022/03/29 01:10:25;;;;;;;19.13;10.60;;;;;;;5.94;100.00;100566.13;4968882;28;20046;-80
2022/03/29 01:12:52;;;;;;;23.23;11.93;;;;;;;5.98;100.00;100562.63;4997232;28;20088;-79
2022/03/29 01:15:19;;;;;;;18.07;10.30;;;;;;;5.91;100.00;100558.28;4979000;28;20097;-80
2022/03/29 01:17:46;;;;;;;21.13;11.80;;;;;;;5.96;100.00;100556.47;4997097;28;20043;-81
2022/03/29 01:20:17;;;;;;;23.47;11.97;;;;;;;6.08;100.00;100556.47;4989226;28;20042;-81
2022/03/29 01:22:46;;;;;;;19.53;11.53;;;;;;;5.96;100.00;100553.00;4986911;28;20042;-81
2022/03/29 01:25:14;;;;;;;19.13;11.03;;;;;;;6.02;100.00;100553.84;4985033;28;20065;-81
2022/03/29 01:27:42;;;;;;;21.57;12.03;;;;;;;5.95;100.00;100551.25;4984940;28;20410;-81
2022/03/29 01:30:09;;;;;;;23.93;12.20;;;;;;;6.03;100.00;100552.09;4966387;28;20038;-81
2022/03/29 01:32:38;;;;;;;22.47;11.67;;;;;;;5.97;100.00;100558.25;4985052;28;20096;-80
2022/03/29 01:35:06;;;;;;;19.80;11.63;;;;;;;6.00;100.00;100546.88;4966208;28;20105;-80
2022/03/29 01:37:34;;;;;;;23.90;13.10;;;;;;;6.03;100.00;100550.34;4976477;28;20467;-82
2022/03/29 01:40:09;;;;;;;30.23;13.60;;;;;;;5.99;99.87;100538.13;4978797;28;20642;-80
2022/03/29 01:42:35;;;;;;;18.53;11.87;;;;;;;5.99;99.97;100535.53;5016096;28;20503;-79
2022/03/29 01:45:03;;;;;;;22.97;13.20;;;;;;;5.93;99.46;100551.25;4998682;28;20046;-81
2022/03/29 01:47:29;;;;;;;22.47;13.30;;;;;;;5.90;99.09;100554.78;4982795;28;20057;-81
2022/03/29 01:49:56;;;;;;;23.33;13.60;;;;;;;5.97;99.62;100554.72;4981483;28;20426;-80
2022/03/29 01:52:23;;;;;;;21.43;13.43;;;;;;;5.93;99.25;100546.88;4982693;28;20046;-80
2022/03/29 01:54:50;;;;;;;23.30;13.30;;;;;;;6.03;99.17;100542.47;4980142;28;20046;-80
2022/03/29 01:57:16;;;;;;;23.50;13.37;;;;;;;5.88;98.82;100555.59;4982372;28;20043;-80
2022/03/29 02:02:29;;;;;;;24.93;12.60;;;;;;;5.86;99.16;100541.63;4981685;28;20048;-79
2022/03/29 02:04:56;;;;;;;22.07;12.30;;;;;;;5.83;99.29;100533.78;4963257;28;20137;-80
2022/03/29 02:07:23;;;;;;;21.80;13.83;;;;;;;6.01;99.03;100549.50;4985700;28;21657;-78
2022/03/29 02:09:50;;;;;;;19.23;12.50;;;;;;;5.96;97.97;100535.50;4995674;28;20038;-79
2022/03/29 02:12:16;;;;;;;24.17;13.70;;;;;;;5.90;99.04;100540.75;4963904;28;20042;-80
2022/03/29 02:14:43;;;;;;;21.03;11.93;;;;;;;5.85;99.01;100538.13;4963486;28;20042;-80
2022/03/29 02:17:10;;;;;;;22.20;12.33;;;;;;;6.00;98.21;100539.88;4996275;28;20042;-81
2022/03/29 02:19:36;;;;;;;23.83;13.83;;;;;;;5.90;98.97;100538.13;4981760;28;20038;-81
2022/03/29 02:22:04;;;;;;;20.13;13.13;;;;;;;5.92;98.46;100532.03;4990734;28;20030;-81
2022/03/29 02:24:31;;;;;;;23.70;13.60;;;;;;;5.93;99.16;100528.53;4991440;28;20454;-81
2022/03/29 02:26:57;;;;;;;26.73;13.43;;;;;;;5.90;97.48;100523.31;5008316;28;20042;-81
2022/03/29 02:29:24;;;;;;;20.30;13.37;;;;;;;5.89;97.75;100537.28;4975075;28;20042;-81
2022/03/29 02:31:51;;;;;;;28.77;13.73;;;;;;;5.91;98.54;100529.44;5005559;28;20042;-81
2022/03/29 02:34:17;;;;;;;28.53;14.57;;;;;;;5.72;99.40;100520.72;4988513;28;20043;-81
2022/03/29 02:36:44;;;;;;;23.53;13.93;;;;;;;5.82;98.93;100513.69;4990276;28;20042;-81
2022/03/29 02:39:11;;;;;;;22.77;13.37;;;;;;;5.80;99.86;100512.81;4983112;28;20043;-83
2022/03/29 02:41:37;;;;;;;25.13;13.87;;;;;;;5.88;99.08;100519.75;4988091;28;20050;-81
2022/03/29 02:44:04;;;;;;;26.77;15.27;;;;;;;5.85;99.46;100524.16;5003685;28;20045;-82
2022/03/29 02:46:33;;;;;;;24.67;13.63;;;;;;;5.80;99.28;100523.28;4985559;28;20054;-81
2022/03/29 02:49:00;;;;;;;25.00;12.63;;;;;;;5.78;100.00;100527.69;4980871;28;20045;-79
2022/03/29 02:51:27;;;;;;;25.23;13.30;;;;;;;5.82;99.78;100527.69;4987334;28;20050;-80
2022/03/29 02:53:54;;;;;;;25.23;13.37;;;;;;;5.83;98.54;100528.53;4970806;28;20043;-81
2022/03/29 02:56:20;;;;;;;24.33;13.37;;;;;;;5.89;99.14;100525.91;4971912;28;20437;-81
2022/03/29 02:58:47;;;;;;;23.07;13.43;;;;;;;5.86;99.78;100520.66;4982342;28;20055;-81
2022/03/29 03:01:14;;;;;;;22.07;13.23;;;;;;;5.81;99.81;100519.81;4983205;28;20047;-82
2022/03/29 03:03:41;;;;;;;23.03;13.33;;;;;;;5.83;99.66;100523.31;4984188;28;20038;-81
2022/03/29 03:06:08;;;;;;;23.43;13.60;;;;;;;5.81;99.77;100518.06;4976934;28;20042;-81
2022/03/29 03:08:35;;;;;;;26.30;14.27;;;;;;;5.79;99.96;100514.56;4984622;28;20139;-82
2022/03/29 03:11:01;;;;;;;25.37;14.17;;;;;;;5.83;98.57;100510.19;4984804;28;20108;-81
2022/03/29 03:13:34;;;;;;;25.53;14.73;;;;;;;5.83;99.55;100507.56;4981062;28;20054;-80
2022/03/29 03:16:01;;;;;;;23.57;13.00;;;;;;;5.77;99.79;100508.47;4965574;28;20059;-82
2022/03/29 03:18:27;;;;;;;25.60;15.07;;;;;;;5.81;99.87;100507.59;4981628;28;20050;-80
2022/03/29 03:20:54;;;;;;;29.13;14.97;;;;;;;5.83;99.32;100503.19;5002788;28;20431;-81
2022/03/29 03:23:21;;;;;;;25.47;14.73;;;;;;;5.93;97.70;100501.44;4987235;28;20054;-82
2022/03/29 03:25:50;;;;;;;25.23;13.10;;;;;;;5.84;98.46;100507.56;4983287;28;20050;-82
2022/03/29 03:28:17;;;;;;;26.43;14.10;;;;;;;5.70;99.17;100509.34;4969692;28;20168;-81
2022/03/29 03:30:44;;;;;;;26.60;13.20;;;;;;;5.74;98.96;100502.38;4975095;28;20038;-81
2022/03/29 03:33:10;;;;;;;26.47;14.30;;;;;;;5.80;99.66;100502.31;4970348;28;20056;-81
2022/03/29 03:35:38;;;;;;;23.10;14.47;;;;;;;5.80;99.16;100504.94;4987347;28;20034;-81
2022/03/29 03:38:05;;;;;;;24.83;14.20;;;;;;;5.75;99.85;100501.47;4984936;28;20101;-80
2022/03/29 03:40:32;;;;;;;25.70;14.03;;;;;;;5.77;99.34;100495.34;4983098;28;20051;-81
2022/03/29 03:43:01;;;;;;;27.13;15.33;;;;;;;5.82;99.51;100492.72;4969333;28;20042;-81
2022/03/29 03:45:28;;;;;;;26.03;14.53;;;;;;;5.82;99.41;100487.47;4999300;28;20058;-81
2022/03/29 03:47:54;;;;;;;25.50;13.97;;;;;;;5.77;99.68;100489.25;4983949;28;20062;-80
2022/03/29 03:50:24;;;;;;;27.87;14.93;;;;;;;5.75;99.56;100488.38;4983527;28;20097;-79
2022/03/29 03:52:52;;;;;;;26.77;14.43;;;;;;;5.85;98.17;100484.84;4979779;28;20048;-81
2022/03/29 03:55:20;;;;;;;29.93;15.40;;;;;;;5.72;99.61;100491.00;4972802;28;20046;-80
2022/03/29 03:57:48;;;;;;;21.83;12.43;;;;;;;5.74;99.63;100481.41;4974892;28;20054;-80
2022/03/29 04:00:16;;;;;;;23.90;13.63;;;;;;;5.70;100.00;100482.28;4960801;28;20051;-80
2022/03/29 04:02:43;;;;;;;27.57;13.87;;;;;;;5.69;100.00;100475.28;5000877;28;20039;-81
2022/03/29 04:05:13;;;;;;;25.73;14.90;;;;;;;5.85;98.08;100490.09;4953275;28;20133;-80
2022/03/29 04:07:40;;;;;;;28.10;15.30;;;;;;;5.82;99.84;100479.63;4975986;28;20455;-81
2022/03/29 04:10:08;;;;;;;29.27;14.80;;;;;;;5.80;98.83;100482.25;4996600;28;20057;-80
2022/03/29 04:12:35;;;;;;;28.50;14.63;;;;;;;5.83;98.92;100470.88;5011450;28;20042;-81
2022/03/29 04:15:03;;;;;;;28.43;14.67;;;;;;;5.89;97.81;100482.22;4978959;28;20557;-80
2022/03/29 04:17:31;;;;;;;23.90;14.60;;;;;;;5.84;98.23;100483.09;4955544;28;20234;-80
2022/03/29 04:19:59;;;;;;;28.13;15.47;;;;;;;5.92;97.95;100474.34;4966648;28;20045;-81
2022/03/29 04:22:26;;;;;;;25.17;14.23;;;;;;;5.83;98.64;100473.50;4997368;28;20057;-81
2022/03/29 04:24:53;;;;;;;29.83;13.50;;;;;;;5.88;98.20;100477.81;4980413;28;20070;-81
2022/03/29 04:27:19;;;;;;;27.73;14.00;;;;;;;5.79;98.67;100472.63;4982279;28;20101;-80
2022/03/29 04:29:46;;;;;;;29.63;14.97;;;;;;;5.77;99.07;100466.50;4950769;28;20042;-81
2022/03/29 04:32:13;;;;;;;28.03;13.93;;;;;;;5.72;100.00;100472.63;4970698;28;20128;-80
2022/03/29 04:34:40;;;;;;;27.03;14.07;;;;;;;5.73;99.95;100467.41;4959680;28;20043;-82
2022/03/29 04:37:07;;;;;;;27.53;14.00;;;;;;;5.63;100.00;100469.22;4975119;28;20062;-80
2022/03/29 04:39:33;;;;;;;23.70;13.73;;;;;;;5.63;100.00;100461.34;4974819;28;20483;-79
2022/03/29 04:42:00;;;;;;;31.40;14.87;;;;;;;5.72;100.00;100462.16;4959477;28;20092;-80
2022/03/29 04:44:37;;;;;;;28.88;15.20;;;;;;;5.75;100.00;100457.78;4987563;28;20046;-79
2022/03/29 04:47:04;;;;;;;27.40;13.87;;;;;;;5.80;98.83;100449.88;4987933;28;20632;-80
2022/03/29 04:49:31;;;;;;;23.67;13.90;;;;;;;5.77;98.86;100448.16;4987553;28;20100;-80
2022/03/29 04:51:57;;;;;;;26.20;13.97;;;;;;;5.73;99.57;100445.59;4971008;28;20622;-80
2022/03/29 04:54:24;;;;;;;24.03;12.73;;;;;;;5.75;99.64;100444.69;4977820;28;20500;-80
2022/03/29 04:56:51;;;;;;;30.30;15.40;;;;;;;5.80;99.90;100444.66;4984874;28;20057;-80
2022/03/29 04:59:17;;;;;;;27.40;14.30;;;;;;;5.88;98.98;100446.34;4971258;28;20054;-81
2022/03/29 05:01:44;;;;;;;30.37;15.00;;;;;;;5.79;99.22;100443.78;4971571;28;20049;-81
2022/03/29 05:04:11;;;;;;;24.77;14.73;;;;;;;5.77;99.67;100442.06;4968938;28;20469;-81
2022/03/29 05:06:37;;;;;;;26.33;13.10;;;;;;;5.75;99.98;100451.69;4983702;28;20042;-82
2022/03/29 05:09:04;;;;;;;25.97;14.10;;;;;;;5.73;99.77;100453.44;4970729;28;20407;-80
2022/03/29 05:11:31;;;;;;;29.23;15.00;;;;;;;5.85;99.00;100448.13;4986807;28;20047;-81
2022/03/29 05:13:57;;;;;;;25.70;14.43;;;;;;;5.83;99.28;100455.13;4986914;28;20042;-80
2022/03/29 05:16:24;;;;;;;28.37;14.67;;;;;;;5.72;99.53;100454.28;4987783;28;20038;-81
2022/03/29 05:18:51;;;;;;;24.73;14.30;;;;;;;5.60;100.00;100448.22;4985090;28;20218;-81
2022/03/29 05:21:18;;;;;;;30.37;14.63;;;;;;;5.65;100.00;100446.47;4975198;28;20058;-82
2022/03/29 05:23:44;;;;;;;24.97;13.83;;;;;;;5.68;100.00;100450.81;4980400;28;20046;-82
2022/03/29 05:26:11;;;;;;;24.50;14.03;;;;;;;5.66;100.00;100447.34;4970388;28;20128;-82
2022/03/29 05:28:38;;;;;;;31.50;15.00;;;;;;;5.73;100.00;100448.19;4988773;28;20582;-80
2022/03/29 05:31:05;;;;;;;31.77;15.97;;;;;;;5.77;100.00;100450.78;4973411;28;20042;-82
2022/03/29 05:33:32;;;;;;;29.30;15.17;;;;;;;5.71;100.00;100442.06;4972867;28;20050;-81
2022/03/29 05:35:58;;;;;;;29.43;14.53;;;;;;;5.67;100.00;100448.22;4961037;28;20050;-81
2022/03/29 05:38:25;;;;;;;28.67;13.83;;;;;;;5.64;100.00;100442.13;4988525;28;20057;-82
2022/03/29 05:40:52;;;;;;;112.77;26.27;;;;;;;5.71;100.00;100437.69;4966177;28;20043;-81
2022/03/29 05:43:18;;;;;;;28.93;14.43;;;;;;;5.68;100.00;100429.00;4972709;28;20053;-81
2022/03/29 05:48:51;;;;;;;31.70;15.63;;;;;;;5.72;100.00;100433.31;4958996;28;20038;-83
2022/03/29 05:51:20;;;;;;;30.57;15.20;;;;;;;5.70;100.00;100429.84;4982748;28;20042;-80
2022/03/29 05:53:47;;;;;;;31.27;16.77;;;;;;;5.75;99.08;100422.84;4979600;28;20565;-80
2022/03/29 05:56:13;;;;;;;36.07;15.57;;;;;;;5.60;98.67;100434.25;4981674;28;20056;-80
2022/03/29 05:58:40;;;;;;;29.80;15.93;;;;;;;5.78;98.51;100430.69;4978120;28;20100;-80
2022/03/29 06:01:07;;;;;;;25.63;13.47;;;;;;;5.72;99.22;100441.19;4978334;28;20389;-81
2022/03/29 06:03:34;;;;;;;25.00;12.33;;;;;;;5.81;99.59;100443.81;5011412;28;20133;-80
2022/03/29 06:06:00;;;;;;;28.33;14.50;;;;;;;5.98;98.21;100444.63;4997754;28;20129;-82
2022/03/29 06:08:27;;;;;;;30.27;16.27;;;;;;;5.97;97.58;100440.25;4998073;28;20889;-80
2022/03/29 06:10:55;;;;;;;26.53;13.37;;;;;;;6.04;96.93;100430.59;4990399;28;20105;-80
2022/03/29 06:13:21;;;;;;;27.00;14.60;;;;;;;5.99;97.31;100445.50;4982140;28;20046;-80
2022/03/29 06:15:48;;;;;;;28.37;14.30;;;;;;;6.03;96.81;100461.19;4978756;28;20389;-82
2022/03/29 06:18:15;;;;;;;26.20;13.47;;;;;;;6.09;93.81;100447.19;4961950;28;20919;-81
2022/03/29 06:20:46;;;;;;;34.43;13.73;;;;;;;6.09;92.34;100440.19;4994200;28;20492;-80
2022/03/29 06:23:13;;;;;;;22.73;12.17;;;;;;;5.86;89.90;100440.25;4958821;28;20072;-79
2022/03/29 06:25:40;;;;;;;23.77;11.50;;;;;;;6.05;88.32;100435.81;4959735;28;20042;-79
2022/03/29 06:28:07;;;;;;;26.67;12.93;;;;;;;6.03;84.44;100436.72;4993918;28;20046;-82
2022/03/29 06:30:34;;;;;;;22.60;10.90;;;;;;;6.28;84.59;100443.56;4976999;28;20503;-81
2022/03/29 06:33:00;;;;;;;27.23;12.03;;;;;;;6.27;84.37;100441.81;4977744;28;20046;-80
2022/03/29 06:35:28;;;;;;;21.23;11.03;;;;;;;6.16;82.12;100444.50;4993023;28;20057;-81
2022/03/29 06:37:58;;;;;;;22.13;12.13;;;;;;;6.26;81.77;100439.19;5010562;28;20050;-81
2022/03/29 06:40:26;;;;;;;21.70;11.90;;;;;;;6.33;81.96;100436.53;4977196;28;20376;-80
2022/03/29 06:42:53;;;;;;;20.27;11.00;;;;;;;6.32;82.13;100434.78;4961755;28;20046;-79
2022/03/29 06:45:20;;;;;;;48.83;13.23;;;;;;;6.31;83.52;100438.31;4975479;28;20423;-79
2022/03/29 06:47:47;;;;;;;20.70;11.33;;;;;;;6.44;83.29;100439.06;4974282;28;20074;-80
2022/03/29 06:50:14;;;;;;;20.63;11.03;;;;;;;6.54;82.02;100443.38;4956866;28;20043;-79
2022/03/29 06:52:43;;;;;;;22.93;11.53;;;;;;;6.65;82.75;100435.44;4957136;28;20097;-79
2022/03/29 06:55:12;;;;;;;17.03;10.20;;;;;;;6.66;78.14;100437.16;4956668;28;20541;-79
2022/03/29 06:57:38;;;;;;;18.90;9.77;;;;;;;6.72;76.56;100424.84;4972974;28;20717;-79
2022/03/29 07:00:09;;;;;;;20.63;9.07;;;;;;;6.76;76.54;100433.56;4990426;28;20039;-79
2022/03/29 07:02:36;;;;;;;44.23;12.40;;;;;;;6.81;75.47;100430.91;4991904;28;20450;-81
2022/03/29 07:05:04;;;;;;;18.87;9.90;;;;;;;7.09;74.79;100445.53;4986461;28;20050;-80
2022/03/29 07:07:30;;;;;;;24.37;12.90;;;;;;;7.04;73.57;100440.31;4976520;28;20483;-79
2022/03/29 07:12:49;;;;;;;17.63;9.30;;;;;;;6.93;70.70;100442.19;4990667;28;20068;-79
2022/03/29 07:15:16;;;;;;;16.90;9.13;;;;;;;7.20;70.05;100442.78;4964572;28;20088;-80
2022/03/29 07:17:44;;;;;;;20.07;9.10;;;;;;;7.51;68.05;100438.94;4976489;28;20504;-79
2022/03/29 07:20:12;;;;;;;22.27;9.73;;;;;;;8.00;68.14;100438.34;4976506;28;20043;-80
2022/03/29 07:22:38;;;;;;;21.80;8.90;;;;;;;7.85;67.58;100430.66;4989547;28;20039;-81
2022/03/29 07:25:05;;;;;;;20.10;9.80;;;;;;;7.15;67.45;100427.09;4958029;28;20141;-78
2022/03/29 07:27:32;;;;;;;15.17;9.43;;;;;;;7.63;67.38;100430.91;4977885;28;20042;-77
2022/03/29 07:30:00;;;;;;;16.13;9.00;;;;;;;7.82;67.12;100435.97;4970444;28;20046;-80
2022/03/29 07:32:27;;;;;;;31.60;11.10;;;;;;;7.88;66.32;100434.09;4976670;28;20562;-78
2022/03/29 07:34:54;;;;;;;17.70;8.50;;;;;;;7.92;65.42;100424.44;5014518;23;20050;-77
2022/03/29 07:37:22;;;;;;;17.03;9.67;;;;;;;7.92;66.00;100423.56;4991109;28;20042;-76
2022/03/29 07:39:53;;;;;;;18.57;9.63;;;;;;;7.71;66.04;100414.16;5010962;28;20564;-76
2022/03/29 07:42:21;;;;;;;22.47;10.33;;;;;;;7.97;65.66;100421.72;4992660;28;20049;-77
2022/03/29 07:44:52;;;;;;;16.17;10.23;;;;;;;7.97;65.02;100426.97;4970336;28;20043;-77
2022/03/29 07:47:19;;;;;;;17.43;9.40;;;;;;;8.00;65.71;100424.31;4981046;28;20057;-77
2022/03/29 07:49:46;;;;;;;17.07;9.23;;;;;;;8.10;65.75;100416.28;4998993;28;20515;-77
2022/03/29 07:52:38;;;;;;;15.93;8.90;;;;;;;8.22;66.06;100425.72;4990501;28;20403;-77
2022/03/29 07:55:07;;;;;;;18.70;9.43;;;;;;;8.38;65.16;100418.53;4973712;28;20049;-77
2022/03/29 07:57:54;;;;;;;21.33;9.93;;;;;;;8.58;63.63;100418.22;4990584;28;20519;-77
2022/03/29 08:00:32;;;;;;;18.03;10.10;;;;;;;8.44;63.53;100414.03;4983579;28;20038;-78
2022/03/29 08:03:05;;;;;;;18.07;9.70;;;;;;;8.67;62.86;100420.72;4950770;28;20046;-77
2022/03/29 08:05:33;;;;;;;25.02;10.13;;;;;;;8.69;62.19;100408.38;4973053;28;20042;-77
2022/03/29 08:08:00;;;;;;;17.20;9.77;;;;;;;8.44;62.05;100408.78;4989549;28;20097;-76
2022/03/29 08:10:29;;;;;;;17.90;9.65;;;;;;;8.36;62.78;100404.53;4972049;28;20130;-77
2022/03/29 08:13:00;;;;;;;22.77;10.00;;;;;;;8.26;64.61;100405.53;5004347;28;20078;-76
2022/03/29 08:15:28;;;;;;;19.27;10.10;;;;;;;8.09;65.04;100411.91;4989174;28;20042;-77
2022/03/29 08:18:00;;;;;;;19.47;10.60;;;;;;;8.01;65.28;100397.13;4974204;28;20038;-77
2022/03/29 08:20:27;;;;;;;18.03;9.67;;;;;;;7.98;64.59;100403.28;4988621;28;20286;-76
2022/03/29 08:22:58;;;;;;;19.03;9.97;;;;;;;7.86;63.40;100401.69;4990767;28;20050;-77
2022/03/29 08:25:27;;;;;;;19.73;9.33;;;;;;;7.94;62.82;100400.72;4973400;28;20042;-76
2022/03/29 08:27:56;;;;;;;12.80;8.13;;;;;;;8.12;64.01;100400.47;4987776;28;20042;-77
2022/03/29 08:30:24;;;;;;;16.97;9.10;;;;;;;8.31;63.88;100407.16;4956891;28;20403;-77
2022/03/29 08:32:52;;;;;;;17.00;9.57;;;;;;;8.40;63.24;100412.31;4973909;28;20159;-77
2022/03/29 08:35:21;;;;;;;20.20;10.00;;;;;;;8.05;61.88;100406.69;4965553;28;20141;-77
2022/03/29 08:37:48;;;;;;;20.80;10.27;;;;;;;7.85;61.23;100394.69;4985634;28;20042;-77
2022/03/29 08:40:26;;;;;;;15.33;9.10;;;;;;;8.21;63.06;100400.31;4971420;28;20432;-78
2022/03/29 08:42:55;;;;;;;16.47;10.50;;;;;;;8.10;60.39;100384.69;5003352;28;20045;-76
2022/03/29 08:45:26;;;;;;;13.10;8.37;;;;;;;8.26;61.68;100385.34;4978863;28;20105;-77
2022/03/29 08:47:56;;;;;;;16.07;9.27;;;;;;;8.36;61.51;100386.09;4983191;28;20042;-76
2022/03/29 08:50:29;;;;;;;26.02;9.80;;;;;;;8.35;62.47;100392.25;4979873;28;20037;-76
2022/03/29 08:52:56;;;;;;;18.37;8.87;;;;;;;8.36;61.30;100379.06;4983595;28;20089;-76
2022/03/29 08:55:23;;;;;;;18.50;9.23;;;;;;;8.53;59.82;100376.16;4969790;28;20046;-76
2022/03/29 08:57:54;;;;;;;13.93;7.17;;;;;;;8.55;58.44;100378.75;4988776;28;20093;-76
2022/03/29 09:00:23;;;;;;;16.37;8.63;;;;;;;8.65;57.88;100383.84;5003894;28;20038;-76
2022/03/29 09:02:50;;;;;;;242.13;30.83;;;;;;;8.96;58.29;100383.31;4986984;28;20039;-76
2022/03/29 09:05:22;;;;;;;15.87;8.10;;;;;;;9.23;57.26;100376.63;4971862;28;20038;-76
2022/03/29 09:07:56;;;;;;;15.23;7.57;;;;;;;9.54;56.16;100371.63;5001566;28;20117;-77
2022/03/29 09:10:39;;;;;;;14.32;7.25;;;;;;;9.85;55.20;100367.44;4984458;28;20431;-76
2022/03/29 09:13:24;;;;;;;13.13;7.32;;;;;;;10.08;55.29;100364.25;4983873;28;20047;-77
2022/03/29 09:15:51;;;;;;;;;;;;;;;10.09;52.71;100366.03;4955712;28;20051;-76
2022/03/29 09:18:19;;;;;;;17.38;7.35;;;;;;;9.90;52.52;100363.81;5001509;28;19926;-76
2022/03/29 09:20:46;;;;;;;9.98;6.53;;;;;;;9.24;52.99;100373.09;4996486;28;20043;-77
2022/03/29 09:23:18;;;;;;;14.70;7.03;;;;;;;9.09;54.38;100368.16;4986818;28;20050;-77
2022/03/29 09:25:49;;;;;;;17.85;7.25;;;;;;;8.99;53.36;100368.28;4970002;28;20038;-77
2022/03/29 09:28:19;;;;;;;11.05;6.63;;;;;;;9.09;54.33;100363.75;4979291;28;20651;-76
2022/03/29 09:30:53;;;;;;;11.70;5.93;;;;;;;9.58;53.84;100363.63;4972541;28;20039;-77
2022/03/29 09:33:29;;;;;;;11.93;6.85;;;;;;;10.13;51.32;100362.38;4955036;28;20394;-77
2022/03/29 09:36:07;;;;;;;12.32;5.90;;;;;;;9.96;49.57;100353.13;4991452;28;20119;-77
2022/03/29 09:38:39;;;;;;;12.90;5.70;;;;;;;10.31;49.43;100341.75;4966756;28;20518;-77
2022/03/29 09:41:20;;;;;;;12.85;5.88;;;;;;;10.67;48.54;100347.88;4992046;28;20463;-76
2022/03/29 09:44:00;;;;;;;11.88;5.40;;;;;;;10.85;48.08;100346.56;4991199;28;20046;-77
2022/03/29 09:46:27;;;;;;;9.32;4.97;;;;;;;11.06;48.65;100332.75;4998045;28;20038;-76
2022/03/29 09:49:01;;;;;;;73.95;12.25;;;;;;;11.46;47.39;100327.19;4958845;28;20043;-78
2022/03/29 09:51:28;;;;;;;;;;;;;;;11.68;45.36;100326.53;4974626;28;20723;-76
2022/03/29 09:53:59;;;;;;;9.20;5.60;;;;;;;11.80;44.76;100319.16;4988599;28;19926;-77
2022/03/29 09:56:30;;;;;;;12.43;5.30;;;;;;;11.50;44.30;100320.03;5006952;28;20104;-77
2022/03/29 09:59:15;;;;;;;12.60;5.53;;;;;;;11.61;44.64;100311.78;4975963;28;20038;-76
2022/03/29 10:01:57;;;;;;;10.57;5.18;;;;;;;11.99;45.88;100314.13;4972205;28;20552;-76
2022/03/29 10:04:26;;;;;;;29.27;7.25;;;;;;;12.30;44.70;100310.50;4995438;28;20050;-76
2022/03/29 10:06:56;;;;;;;9.73;5.15;;;;;;;12.45;42.78;100319.72;4987637;28;20043;-76
2022/03/29 10:09:27;;;;;;;13.98;5.95;;;;;;;12.37;42.32;100312.91;4974343;28;20047;-77
2022/03/29 10:11:57;;;;;;;8.05;4.25;;;;;;;12.55;42.14;100313.19;4991206;28;20122;-77
2022/03/29 10:14:28;;;;;;;8.30;4.25;;;;;;;12.32;43.09;100298.06;4974965;28;20050;-77
2022/03/29 10:16:56;;;;;;;13.60;4.60;;;;;;;12.08;44.31;100305.03;4992806;28;20053;-77
2022/03/29 10:19:24;;;;;;;9.27;4.70;;;;;;;11.48;42.93;100298.91;4991730;28;20061;-77
2022/03/29 10:21:53;;;;;;;8.35;3.92;;;;;;;11.52;45.20;100303.22;4955889;28;20053;-77
2022/03/29 10:24:21;;;;;;;10.48;3.83;;;;;;;11.33;44.21;100309.06;4974840;28;20054;-77
2022/03/29 10:26:50;;;;;;;10.05;4.07;;;;;;;11.51;43.63;100311.19;4993473;28;20042;-77
2022/03/29 10:29:17;;;;;;;74.82;11.18;;;;;;;10.55;44.68;100301.53;4975116;28;20053;-77
2022/03/29 10:31:57;;;;;;;9.50;5.40;;;;;;;10.32;46.65;100296.84;4975967;28;20050;-77
2022/03/29 10:34:30;;;;;;;9.95;5.05;;;;;;;10.23;46.91;100312.03;4976235;28;20055;-76
2022/03/29 10:37:09;;;;;;;10.35;6.57;;;;;;;10.59;46.24;100305.81;5004596;28;20046;-77
2022/03/29 10:39:41;;;;;;;8.70;4.43;;;;;;;10.57;47.82;100298.84;4984192;28;20054;-77
2022/03/29 10:42:28;;;;;;;8.43;5.70;;;;;;;11.02;45.56;100302.03;4992308;28;20043;-76
2022/03/29 10:45:03;;;;;;;11.05;5.03;;;;;;;11.30;45.30;100295.97;4956726;28;20054;-77
2022/03/29 10:47:56;;;;;;;9.60;4.20;;;;;;;10.91;44.34;100299.66;4979784;28;20057;-77
2022/03/29 10:50:55;;;;;;;8.23;4.50;;;;;;;10.14;46.32;100278.78;5007577;28;20054;-77
2022/03/29 10:53:45;;;;;;;15.48;4.65;;;;;;;10.97;46.02;100290.72;4985902;28;20070;-76
2022/03/29 10:56:15;;;;;;;16.20;4.70;;;;;;;11.26;44.25;100287.22;4989985;28;20050;-75
2022/03/29 10:59:09;;;;;;;8.73;3.83;;;;;;;11.47;43.51;100273.38;4989333;28;20042;-75
2022/03/29 11:01:40;;;;;;;9.95;4.25;;;;;;;10.69;44.26;100274.75;4974898;28;20048;-75
2022/03/29 11:04:17;;;;;;;11.02;3.90;;;;;;;11.56;44.47;100272.22;4958516;28;20459;-75
2022/03/29 11:07:06;;;;;;;7.88;4.82;;;;;;;11.74;43.88;100258.41;5024349;28;20074;-75
2022/03/29 11:09:34;;;;;;;8.85;4.95;;;;;;;11.69;41.58;100267.44;4995964;28;20038;-77
2022/03/29 11:12:03;;;;;;;9.98;3.72;;;;;;;11.51;39.59;100263.56;4946600;28;20109;-77
2022/03/29 11:14:37;;;;;;;9.50;3.80;;;;;;;11.70;40.45;100256.81;4971729;28;20085;-76
2022/03/29 11:17:04;;;;;;;8.50;4.05;;;;;;;11.57;39.72;100258.94;5008861;28;20108;-77
2022/03/29 11:19:48;;;;;;;8.40;3.67;;;;;;;11.82;39.83;100251.13;4991193;28;20392;-77
2022/03/29 11:22:21;;;;;;;8.10;6.60;;;;;;;12.25;39.92;100248.84;4941372;28;20526;-75
2022/03/29 11:24:49;;;;;;;8.38;3.50;;;;;;;12.48;37.55;100246.28;5003778;28;20038;-76
2022/03/29 11:27:23;;;;;;;8.18;3.60;;;;;;;12.31;36.56;100236.28;4976404;28;20046;-76
2022/03/29 11:29:54;;;;;;;6.72;3.22;;;;;;;12.63;37.92;100245.75;4958723;28;20058;-75
2022/03/29 11:32:21;;;;;;;7.88;3.13;;;;;;;12.80;37.57;100239.00;4991947;28;20046;-77
2022/03/29 11:34:57;;;;;;;10.02;3.58;;;;;;;13.02;36.20;100229.31;4974743;28;20046;-76
2022/03/29 11:37:51;;;;;;;7.07;3.22;;;;;;;12.25;36.77;100240.91;4991062;28;20050;-77